Time;durP1;ratioP1;P1;durP2;ratioP2;P2;SDS_P1;SDS_P2;PMS_P1;PMS_P2;Temp;Humidity;BMP_temperature;BMP_pressure;BME280_temperature;BME280_humidity;BME280_pressure;Samples;Min_cycle;Max_cycle;Signal;HPM_P1;HPM_P2
2023/07/30 05:26:45;;;;;;;6.40;3.70;;;;;;;22.97;73.84;98994.66;80266;1295;3013315;-66
2023/07/30 05:29:12;;;;;;;6.90;3.40;;;;;;;23.18;72.85;98995.02;79228;1301;3018508;-62
2023/07/30 05:31:38;;;;;;;5.70;4.00;;;;;;;23.12;72.73;98995.95;79151;1301;3012171;-65
2023/07/30 05:34:06;;;;;;;7.50;3.30;;;;;;;22.99;72.56;98992.25;78155;1301;3025719;-66
2023/07/30 05:36:33;;;;;;;3.90;2.70;;;;;;;22.80;72.22;98992.17;79222;1297;3012964;-64
2023/07/30 05:39:00;;;;;;;6.90;3.10;;;;;;;22.74;71.48;98990.39;78089;1301;3011663;-65
2023/07/30 05:41:28;;;;;;;5.20;2.90;;;;;;;22.83;71.55;98993.61;78290;1295;3049579;-66
2023/07/30 05:43:55;;;;;;;6.30;3.20;;;;;;;22.82;71.96;98989.99;79482;1298;3013043;-66
2023/07/30 05:46:21;;;;;;;3.80;3.10;;;;;;;22.84;72.03;98987.67;79560;1298;3012136;-66
2023/07/30 05:48:49;;;;;;;4.40;2.50;;;;;;;22.85;71.37;98990.41;78387;1298;3027637;-68
2023/07/30 05:51:16;;;;;;;2.80;2.30;;;;;;;22.94;71.14;98990.67;79660;1298;3018585;-67
2023/07/30 05:53:42;;;;;;;5.40;2.20;;;;;;;23.48;69.89;98987.25;79484;1298;3011645;-69
2023/07/30 05:56:12;;;;;;;4.70;2.50;;;;;;;23.94;67.84;98990.01;78364;1296;3026871;-69
2023/07/30 05:58:39;;;;;;;3.60;2.60;;;;;;;23.88;67.34;98989.59;79579;1295;3011808;-66
2023/07/30 06:01:06;;;;;;;3.80;2.60;;;;;;;23.79;67.53;98988.98;79637;1298;3012028;-66
2023/07/30 06:03:34;;;;;;;4.10;2.40;;;;;;;23.53;67.88;98995.06;78366;1298;3052807;-64
2023/07/30 06:06:01;;;;;;;5.30;3.00;;;;;;;23.56;67.87;98992.79;79622;1298;3013678;-66
2023/07/30 06:08:29;;;;;;;5.10;3.50;;;;;;;23.54;68.13;98992.77;79689;1298;3011295;-66
2023/07/30 06:11:03;;;;;;;4.00;3.20;;;;;;;23.48;68.01;98991.23;78310;1296;3049432;-69
2023/07/30 06:13:32;;;;;;;4.50;2.80;;;;;;;23.46;68.16;98992.67;79034;1296;3011780;-66
2023/07/30 06:15:59;;;;;;;3.80;2.90;;;;;;;23.41;68.64;98993.29;79560;1295;3012709;-71
2023/07/30 06:18:25;;;;;;;5.00;2.90;;;;;;;23.43;68.18;98997.09;79733;1298;3011778;-66
2023/07/30 06:20:53;;;;;;;4.50;2.50;;;;;;;23.49;67.38;98993.22;78585;1295;3025959;-66
2023/07/30 06:23:20;;;;;;;6.10;3.20;;;;;;;23.54;66.72;98993.71;79588;1295;3018386;-65
2023/07/30 06:25:46;;;;;;;4.50;3.30;;;;;;;23.42;66.44;98994.82;79401;1300;3011685;-65
2023/07/30 06:28:14;;;;;;;7.10;3.20;;;;;;;23.38;66.14;98993.66;78440;1298;3026536;-69
2023/07/30 06:30:41;;;;;;;5.30;3.20;;;;;;;23.37;66.37;98992.41;79666;1295;3019435;-65
2023/07/30 06:33:07;;;;;;;4.50;3.40;;;;;;;23.44;66.72;98996.91;79575;1298;3013325;-68
2023/07/30 06:35:35;;;;;;;5.20;2.50;;;;;;;23.55;65.76;98992.70;78477;1298;3027740;-69
2023/07/30 06:38:01;;;;;;;6.20;3.10;;;;;;;23.59;63.66;98996.63;79428;1298;3013471;-67
2023/07/30 06:40:28;;;;;;;8.30;3.90;;;;;;;23.52;64.24;98996.91;79544;1299;3011741;-66
2023/07/30 06:42:56;;;;;;;6.30;3.50;;;;;;;23.53;64.58;98993.80;78287;1296;3025447;-69
2023/07/30 06:45:22;;;;;;;8.20;3.80;;;;;;;23.63;64.44;98989.41;79621;1298;3011657;-66
2023/07/30 06:47:49;;;;;;;8.70;3.50;;;;;;;23.68;64.50;98985.34;79509;1298;3013034;-69
2023/07/30 06:50:17;;;;;;;4.10;2.50;;;;;;;23.71;61.78;98988.75;78401;1298;3025976;-66
2023/07/30 06:52:43;;;;;;;11.80;3.90;;;;;;;23.74;61.93;98989.48;79646;1298;3013093;-66
2023/07/30 06:55:10;;;;;;;6.10;4.20;;;;;;;23.79;62.78;98989.62;79691;1295;3013083;-64
2023/07/30 06:57:37;;;;;;;6.60;3.90;;;;;;;23.77;61.99;98989.93;78389;1298;3026026;-68
2023/07/30 07:00:04;;;;;;;7.90;5.10;;;;;;;23.75;61.97;98982.94;79552;1296;3018586;-70
2023/07/30 07:02:32;;;;;;;6.50;4.60;;;;;;;23.81;61.08;98984.15;79537;1300;3011607;-67
2023/07/30 07:05:00;;;;;;;6.40;3.90;;;;;;;23.98;61.32;98983.02;78286;1298;3052636;-66
2023/07/30 07:07:27;;;;;;;4.10;3.00;;;;;;;24.09;60.80;98979.95;79624;1298;3013017;-69
2023/07/30 07:09:53;;;;;;;8.20;4.80;;;;;;;24.21;59.30;98975.79;79686;1295;3011899;-67
2023/07/30 07:12:21;;;;;;;8.70;5.50;;;;;;;24.26;59.01;98980.95;78297;1295;3025789;-69
2023/07/30 07:14:48;;;;;;;7.80;4.40;;;;;;;24.29;58.84;98977.44;79643;1298;3011980;-70
2023/07/30 07:17:14;;;;;;;8.10;3.80;;;;;;;24.27;58.68;98989.10;79475;1298;3013013;-70
2023/07/30 07:19:42;;;;;;;6.50;3.90;;;;;;;24.27;59.08;98982.58;78273;1298;3026308;-68
2023/07/30 07:22:09;;;;;;;7.80;4.60;;;;;;;24.35;58.18;98977.73;79583;1298;3013210;-65
2023/07/30 07:24:35;;;;;;;3.80;2.40;;;;;;;24.38;57.80;98982.63;79565;1298;3011747;-70
2023/07/30 07:27:04;;;;;;;4.30;2.40;;;;;;;24.26;56.71;98983.02;78517;1295;3026421;-65
2023/07/30 07:29:30;;;;;;;3.50;2.50;;;;;;;24.32;55.55;98984.23;79524;1295;3014978;-65
2023/07/30 07:31:57;;;;;;;3.80;2.20;;;;;;;24.48;56.49;98982.82;79439;1295;3013461;-65
2023/07/30 07:34:25;;;;;;;5.80;2.30;;;;;;;24.61;57.21;98976.45;78109;1301;3053833;-64
2023/07/30 07:36:51;;;;;;;4.30;2.20;;;;;;;24.75;57.33;98975.48;79512;1298;3018418;-63
2023/07/30 07:39:18;;;;;;;2.10;1.60;;;;;;;24.86;56.61;98975.14;79383;1295;3011589;-63
2023/07/30 07:41:46;;;;;;;2.10;1.60;;;;;;;24.92;54.60;98980.38;78300;1298;3027598;-67
2023/07/30 07:44:12;;;;;;;3.30;1.80;;;;;;;25.09;55.06;98981.36;79333;1301;3018389;-70
2023/07/30 07:46:38;;;;;;;2.90;1.90;;;;;;;25.28;54.35;98976.33;79387;1300;3013014;-66
2023/07/30 07:49:08;;;;;;;3.10;1.80;;;;;;;25.41;53.07;98972.35;78171;1301;3026525;-67
2023/07/30 07:51:35;;;;;;;2.30;1.70;;;;;;;25.45;51.94;98968.22;79378;1295;3013803;-66
2023/07/30 07:54:01;;;;;;;6.30;2.10;;;;;;;25.47;52.19;98973.90;79471;1295;3011649;-64
2023/07/30 07:56:31;;;;;;;2.50;1.90;;;;;;;25.31;52.44;98975.89;78269;1300;3050753;-68
2023/07/30 07:58:58;;;;;;;3.60;2.40;;;;;;;25.16;53.12;98971.61;79529;1299;3013065;-69
2023/07/30 08:01:24;;;;;;;4.20;2.30;;;;;;;25.24;53.18;98966.17;79464;1295;3013528;-69
2023/07/30 08:03:52;;;;;;;2.70;2.10;;;;;;;25.42;52.54;98969.38;78256;1299;3053033;-66
2023/07/30 08:06:18;;;;;;;2.40;2.20;;;;;;;25.47;52.36;98971.05;79429;1300;3011992;-64
2023/07/30 08:08:45;;;;;;;2.90;2.20;;;;;;;25.66;50.82;98964.20;79303;1295;3011896;-66
2023/07/30 08:11:13;;;;;;;3.30;2.30;;;;;;;25.85;50.58;98962.94;78228;1300;3026072;-66
2023/07/30 08:13:39;;;;;;;8.30;2.80;;;;;;;25.71;49.98;98967.83;79464;1301;3013704;-65
2023/07/30 08:16:06;;;;;;;3.00;2.00;;;;;;;25.56;48.34;98972.43;79455;1302;3011561;-66
2023/07/30 08:18:33;;;;;;;3.10;2.10;;;;;;;25.45;48.74;98978.86;78171;1303;3026334;-69
2023/07/30 08:21:00;;;;;;;3.30;2.30;;;;;;;25.52;48.79;98980.16;79488;1296;3013171;-69
2023/07/30 08:23:27;;;;;;;2.60;2.10;;;;;;;25.79;49.05;98966.81;79450;1300;3013097;-71
2023/07/30 08:25:55;;;;;;;2.90;2.40;;;;;;;26.12;49.32;98962.86;78209;1301;3029648;-65
2023/07/30 08:28:21;;;;;;;4.10;2.10;;;;;;;26.34;49.11;98960.72;79534;1299;3013337;-68
2023/07/30 08:30:48;;;;;;;2.70;2.10;;;;;;;26.44;49.05;98960.34;79622;1295;3011646;-70
2023/07/30 08:33:16;;;;;;;2.50;2.10;;;;;;;26.50;49.22;98961.69;78471;1298;3026682;-69
2023/07/30 08:38:14;;;;;;;6.60;3.00;;;;;;;26.29;48.89;98966.27;80272;1299;3012792;-66
2023/07/30 08:40:40;;;;;;;6.40;3.00;;;;;;;25.93;49.46;98973.42;79230;1302;3012989;-65
2023/07/30 08:43:07;;;;;;;3.30;3.00;;;;;;;25.88;49.75;98968.08;79065;1307;3013571;-66
2023/07/30 08:45:35;;;;;;;4.70;2.60;;;;;;;25.95;49.97;98964.83;77875;1304;3028434;-67
2023/07/30 08:48:01;;;;;;;7.10;2.40;;;;;;;26.26;50.31;98959.17;79226;1302;3018417;-69
2023/07/30 08:50:32;;;;;;;2.90;2.40;;;;;;;26.53;49.00;98959.16;78291;1300;3011615;-69
2023/07/30 08:52:59;;;;;;;3.70;2.60;;;;;;;26.66;48.54;98957.77;79368;1298;3018853;-67
2023/07/30 08:55:26;;;;;;;7.10;2.80;;;;;;;26.57;47.46;98957.12;79335;1298;3012830;-72
2023/07/30 08:57:56;;;;;;;5.20;3.90;;;;;;;26.47;46.30;98964.02;77896;1306;3048706;-70
2023/07/30 09:00:24;;;;;;;6.10;3.50;;;;;;;26.50;46.13;98965.38;79430;1302;3015411;-68
2023/07/30 09:02:56;;;;;;;6.10;3.40;;;;;;;26.56;45.49;98961.52;78785;1298;3012028;-68
2023/07/30 09:05:23;;;;;;;7.40;5.20;;;;;;;26.51;44.81;98965.38;79470;1298;3013146;-71
2023/07/30 09:07:51;;;;;;;9.60;6.00;;;;;;;26.54;45.13;98965.16;78852;1297;3011620;-69
2023/07/30 09:10:18;;;;;;;7.90;4.00;;;;;;;26.70;44.89;98965.23;79501;1298;3013339;-68
2023/07/30 09:12:45;;;;;;;8.20;3.90;;;;;;;26.89;44.85;98965.05;79377;1298;3011770;-66
2023/07/30 09:15:12;;;;;;;6.60;4.20;;;;;;;27.08;44.90;98971.61;78171;1300;3025986;-66
2023/07/30 09:17:39;;;;;;;8.10;4.90;;;;;;;26.70;45.22;98970.86;79455;1298;3013059;-67
2023/07/30 09:20:06;;;;;;;6.20;4.40;;;;;;;26.30;46.43;98969.58;79388;1301;3013164;-67
2023/07/30 09:22:38;;;;;;;8.60;5.20;;;;;;;26.30;46.22;98970.66;78258;1298;3051665;-68
2023/07/30 09:25:05;;;;;;;8.90;5.30;;;;;;;26.39;45.62;98968.91;79395;1298;3011779;-68
2023/07/30 09:27:34;;;;;;;4.80;3.50;;;;;;;26.57;43.24;98967.36;78252;1301;3026374;-67
2023/07/30 09:30:01;;;;;;;4.80;3.60;;;;;;;26.76;42.37;98967.11;79412;1297;3013201;-71
2023/07/30 09:32:29;;;;;;;6.90;3.20;;;;;;;26.78;42.73;98964.70;79464;1299;3013365;-71
2023/07/30 09:35:08;;;;;;;6.50;2.80;;;;;;;27.02;42.10;98959.08;78210;1301;3054381;-68
2023/07/30 09:37:37;;;;;;;6.00;3.50;;;;;;;27.19;41.89;98964.85;78221;1298;3069869;-71
2023/07/30 09:40:06;;;;;;;5.10;3.00;;;;;;;27.11;42.73;98964.30;79566;1297;3013038;-66
2023/07/30 09:42:39;;;;;;;6.20;3.50;;;;;;;27.20;43.30;98970.86;78234;1299;3057331;-67
2023/07/30 09:45:07;;;;;;;4.40;3.50;;;;;;;27.18;42.49;98970.09;79418;1298;3011562;-67
2023/07/30 09:47:38;;;;;;;6.90;3.60;;;;;;;27.12;42.86;98969.82;78123;1299;3052625;-69
2023/07/30 09:50:05;;;;;;;5.90;3.90;;;;;;;26.96;42.77;98972.20;79488;1298;3012959;-68
2023/07/30 09:52:33;;;;;;;8.40;3.90;;;;;;;26.98;43.06;98978.53;78343;1301;3026591;-65
2023/07/30 09:55:00;;;;;;;7.20;3.40;;;;;;;27.12;43.34;98972.68;79499;1301;3013293;-68
2023/07/30 09:57:26;;;;;;;4.50;3.40;;;;;;;27.14;42.01;98971.39;79366;1298;3012648;-68
2023/07/30 09:59:54;;;;;;;4.90;2.70;;;;;;;27.40;42.14;98969.64;78317;1297;3027461;-69
2023/07/30 10:02:24;;;;;;;5.40;2.70;;;;;;;27.44;41.48;98969.45;79490;1297;3020297;-64
2023/07/30 10:04:53;;;;;;;5.90;2.80;;;;;;;27.51;41.30;98975.36;79016;1300;3011954;-68
2023/07/30 10:07:22;;;;;;;4.90;3.20;;;;;;;27.63;41.65;98972.31;79489;1301;3015786;-67
2023/07/30 10:09:49;;;;;;;7.30;4.10;;;;;;;27.54;41.75;98976.91;79492;1298;3011832;-64
2023/07/30 10:12:18;;;;;;;12.50;7.20;;;;;;;27.42;41.70;98982.50;78107;1297;3068653;-70
2023/07/30 10:14:44;;;;;;;10.90;5.70;;;;;;;27.37;41.15;98974.99;79376;1298;3013248;-67
2023/07/30 10:17:11;;;;;;;7.20;4.40;;;;;;;27.45;40.80;98966.85;79478;1301;3011478;-67
2023/07/30 10:19:39;;;;;;;10.70;4.60;;;;;;;27.66;40.35;98966.60;78196;1299;3054433;-72
2023/07/30 10:22:17;;;;;;;5.00;3.00;;;;;;;27.92;40.36;98965.80;79430;1301;3013020;-69
2023/07/30 10:25:03;;;;;;;4.60;3.30;;;;;;;28.16;40.02;98966.09;78319;1296;3054040;-71
2023/07/30 10:27:36;;;;;;;4.40;2.50;;;;;;;27.98;38.22;98968.89;78154;1301;3069083;-65
2023/07/30 10:30:14;;;;;;;2.70;2.30;;;;;;;28.03;37.54;98958.20;79535;1298;3013361;-69
2023/07/30 10:32:59;;;;;;;3.70;2.20;;;;;;;28.30;37.95;98958.15;79261;1300;3058144;-66
2023/07/30 10:35:42;;;;;;;5.60;2.50;;;;;;;28.09;38.95;98973.73;78231;1301;3049906;-67
2023/07/30 10:38:28;;;;;;;3.80;2.20;;;;;;;27.71;39.50;98970.02;78013;1301;3053550;-67
2023/07/30 10:41:06;;;;;;;3.00;2.20;;;;;;;27.74;40.24;98966.89;78039;1303;3050770;-66
2023/07/30 10:43:36;;;;;;;2.60;2.00;;;;;;;27.95;39.54;98967.00;78430;1304;3053331;-67
2023/07/30 10:46:03;;;;;;;2.20;2.00;;;;;;;27.85;37.67;98966.77;79830;1298;3012897;-72
2023/07/30 10:48:39;;;;;;;3.40;2.40;;;;;;;28.11;38.32;98968.41;79765;1298;3011914;-67
2023/07/30 10:51:09;;;;;;;5.80;2.40;;;;;;;28.03;38.38;98968.98;78369;1298;3057647;-68
2023/07/30 10:53:36;;;;;;;3.40;2.50;;;;;;;27.71;39.80;98973.35;79269;1298;3012931;-67
2023/07/30 10:56:09;;;;;;;4.80;2.30;;;;;;;27.59;40.41;98973.20;78845;1300;3011508;-65
2023/07/30 10:58:36;;;;;;;4.10;2.40;;;;;;;27.35;39.77;98978.98;79130;1298;3013448;-66
2023/07/30 11:01:04;;;;;;;5.20;3.80;;;;;;;27.51;39.97;98978.44;78275;1303;3028896;-67
2023/07/30 11:03:34;;;;;;;7.70;3.70;;;;;;;27.53;40.54;98976.56;79927;1298;3013897;-66
2023/07/30 11:06:02;;;;;;;9.40;4.30;;;;;;;27.71;40.52;98975.88;79387;1303;3011498;-68
2023/07/30 11:08:36;;;;;;;8.00;4.20;;;;;;;28.03;40.11;98965.98;79367;1298;3013011;-67
2023/07/30 11:11:04;;;;;;;3.00;2.30;;;;;;;28.16;39.75;98967.31;78012;1304;3051099;-66
2023/07/30 11:13:38;;;;;;;3.10;2.40;;;;;;;27.66;40.54;98971.24;79400;1298;3013407;-66
2023/07/30 11:16:07;;;;;;;3.20;2.60;;;;;;;27.29;41.11;98971.71;77869;1303;3051901;-69
2023/07/30 11:18:34;;;;;;;5.50;2.60;;;;;;;27.16;41.74;98968.58;79360;1303;3013739;-65
2023/07/30 11:21:04;;;;;;;5.60;3.10;;;;;;;27.42;41.63;98965.30;79191;1298;3013350;-66
2023/07/30 11:23:32;;;;;;;5.40;3.40;;;;;;;27.69;40.51;98962.64;77848;1299;3056688;-64
2023/07/30 11:26:00;;;;;;;4.20;3.10;;;;;;;28.02;40.27;98960.07;79284;1298;3012688;-66
2023/07/30 11:28:31;;;;;;;8.40;4.40;;;;;;;28.19;39.83;98956.71;80150;1298;3011583;-66
2023/07/30 11:31:04;;;;;;;4.40;2.90;;;;;;;28.34;39.16;98949.27;78183;1303;3051692;-65
2023/07/30 11:33:30;;;;;;;6.30;3.20;;;;;;;28.62;39.00;98951.39;79237;1301;3012042;-67
2023/07/30 11:36:00;;;;;;;4.40;3.30;;;;;;;28.64;38.96;98960.21;78081;1303;3070459;-68
2023/07/30 11:38:27;;;;;;;7.10;4.30;;;;;;;28.38;39.37;98954.50;79656;1298;3011660;-67
2023/07/30 11:40:54;;;;;;;8.20;4.70;;;;;;;28.15;40.10;98952.01;79402;1299;3011849;-69
2023/07/30 11:43:22;;;;;;;9.20;5.30;;;;;;;28.20;40.06;98953.95;78166;1299;3052724;-64
2023/07/30 11:45:49;;;;;;;6.30;5.00;;;;;;;28.39;40.12;98949.05;79454;1301;3013368;-67
2023/07/30 11:48:15;;;;;;;8.90;3.90;;;;;;;28.75;39.84;98950.38;79390;1301;3011457;-65
2023/07/30 11:50:50;;;;;;;4.00;3.00;;;;;;;28.85;39.46;98952.77;78203;1301;3027815;-67
2023/07/30 11:53:19;;;;;;;6.80;3.10;;;;;;;28.67;39.48;98949.92;79191;1295;3011839;-68
2023/07/30 11:55:46;;;;;;;4.70;3.90;;;;;;;28.68;39.65;98944.89;79568;1301;3018618;-63
2023/07/30 11:58:12;;;;;;;5.00;3.70;;;;;;;28.77;39.57;98944.14;79440;1297;3012044;-66
2023/07/30 12:00:40;;;;;;;6.10;4.60;;;;;;;28.79;39.97;98947.42;78282;1301;3028932;-70
2023/07/30 12:03:10;;;;;;;5.30;3.90;;;;;;;28.71;40.32;98940.75;79508;1301;3021268;-63
2023/07/30 12:05:39;;;;;;;10.10;5.60;;;;;;;28.85;40.36;98939.23;78831;1300;3011593;-66
2023/07/30 12:08:12;;;;;;;10.60;6.60;;;;;;;29.04;40.11;98942.40;79460;1301;3021274;-65
2023/07/30 12:10:43;;;;;;;9.40;5.20;;;;;;;29.28;39.29;98941.54;78204;1298;3051977;-67
2023/07/30 12:13:17;;;;;;;8.70;4.60;;;;;;;29.65;38.84;98938.13;79534;1301;3011587;-67
2023/07/30 12:15:55;;;;;;;6.20;4.50;;;;;;;29.84;38.38;98937.48;78547;1301;3050163;-65
2023/07/30 12:18:26;;;;;;;11.30;5.10;;;;;;;30.18;38.25;98939.54;78283;1296;3051883;-70
2023/07/30 12:20:53;;;;;;;4.50;3.40;;;;;;;30.39;38.01;98944.64;79583;1296;3014932;-68
2023/07/30 12:23:22;;;;;;;5.50;3.20;;;;;;;30.50;37.38;98944.42;79262;1298;3011660;-66
2023/07/30 12:25:48;;;;;;;5.60;3.60;;;;;;;30.39;36.62;98939.98;79586;1301;3013089;-64
2023/07/30 12:28:15;;;;;;;9.90;4.90;;;;;;;30.61;36.85;98932.59;79493;1296;3011678;-63
2023/07/30 12:30:42;;;;;;;12.50;6.20;;;;;;;30.76;37.07;98925.27;78317;1295;3027562;-65
2023/07/30 12:33:09;;;;;;;10.40;6.40;;;;;;;30.83;36.66;98925.25;79259;1300;3020287;-67
2023/07/30 12:35:35;;;;;;;14.30;5.90;;;;;;;30.85;36.68;98924.80;79299;1298;3013636;-67
2023/07/30 12:38:03;;;;;;;9.90;3.80;;;;;;;30.83;36.57;98927.95;78445;1300;3028635;-66
2023/07/30 12:40:33;;;;;;;6.90;3.40;;;;;;;30.42;36.80;98929.74;79283;1301;3012827;-67
2023/07/30 12:43:03;;;;;;;4.70;3.00;;;;;;;30.43;37.39;98918.08;78860;1296;3013677;-68
2023/07/30 12:45:31;;;;;;;7.70;3.30;;;;;;;30.77;36.82;98908.09;79670;1295;3012709;-64
2023/07/30 12:47:57;;;;;;;7.10;3.30;;;;;;;31.19;35.81;98905.85;79315;1297;3011759;-66
2023/07/30 12:50:25;;;;;;;3.80;2.90;;;;;;;31.39;34.74;98907.70;78226;1300;3053477;-69
2023/07/30 12:52:52;;;;;;;4.90;3.10;;;;;;;31.29;33.75;98908.17;79445;1298;3013080;-65
2023/07/30 12:55:19;;;;;;;3.80;3.20;;;;;;;31.12;34.06;98905.61;79164;1301;3013549;-63
2023/07/30 12:57:47;;;;;;;3.70;2.30;;;;;;;30.88;34.38;98909.01;78196;1301;3028066;-65
2023/07/30 13:00:14;;;;;;;6.30;2.50;;;;;;;30.71;34.99;98903.63;79546;1298;3013043;-68
2023/07/30 13:02:41;;;;;;;3.90;2.40;;;;;;;30.76;34.87;98902.11;79539;1295;3011983;-65
2023/07/30 13:05:10;;;;;;;3.40;2.20;;;;;;;30.84;34.74;98904.12;78031;1299;3052986;-70
2023/07/30 13:07:36;;;;;;;4.30;2.30;;;;;;;30.94;34.96;98912.05;79556;1301;3011885;-67
2023/07/30 13:10:07;;;;;;;2.50;2.10;;;;;;;30.90;34.07;98909.02;79506;1301;3013717;-64
2023/07/30 13:12:35;;;;;;;2.70;2.30;;;;;;;31.22;33.72;98901.09;78234;1301;3069043;-66
2023/07/30 13:15:02;;;;;;;3.60;2.60;;;;;;;31.34;33.53;98903.05;79541;1295;3021389;-67
2023/07/30 13:17:31;;;;;;;7.30;2.30;;;;;;;31.36;33.69;98906.73;79431;1295;3011912;-67
2023/07/30 13:19:59;;;;;;;5.40;2.30;;;;;;;31.43;33.64;98903.98;78342;1300;3052913;-69
2023/07/30 13:22:25;;;;;;;5.00;2.40;;;;;;;31.55;33.27;98898.75;79441;1301;3013481;-66
2023/07/30 13:24:52;;;;;;;3.30;3.00;;;;;;;31.73;32.79;98906.05;79229;1301;3011615;-66
2023/07/30 13:27:20;;;;;;;4.20;3.30;;;;;;;31.77;32.68;98900.73;78122;1299;3027264;-64
2023/07/30 13:29:48;;;;;;;5.90;3.40;;;;;;;31.85;32.81;98903.70;79273;1298;3012948;-66
2023/07/30 13:32:15;;;;;;;4.10;3.10;;;;;;;31.95;32.60;98898.36;79516;1295;3012885;-70
2023/07/30 13:34:43;;;;;;;4.90;2.90;;;;;;;31.70;32.09;98901.92;78384;1305;3053158;-62
2023/07/30 13:37:10;;;;;;;6.00;2.80;;;;;;;31.74;31.74;98895.25;79229;1301;3015221;-67
2023/07/30 13:39:36;;;;;;;3.70;2.70;;;;;;;31.93;31.34;98892.14;79538;1298;3013420;-66
2023/07/30 13:42:05;;;;;;;5.80;2.60;;;;;;;32.19;31.03;98891.95;78217;1297;3068240;-64
2023/07/30 13:44:31;;;;;;;4.50;2.80;;;;;;;32.16;30.20;98893.75;79808;1298;3020935;-70
2023/07/30 13:46:58;;;;;;;3.70;2.20;;;;;;;32.05;29.98;98889.72;79471;1301;3011793;-66
2023/07/30 13:49:26;;;;;;;8.20;2.70;;;;;;;32.31;29.75;98889.53;78156;1301;3017627;-71
2023/07/30 13:51:52;;;;;;;4.50;2.50;;;;;;;32.64;29.84;98892.91;79498;1301;3018601;-72
2023/07/30 13:54:19;;;;;;;3.20;2.30;;;;;;;32.78;30.35;98896.06;79434;1301;3013040;-67
2023/07/30 13:56:47;;;;;;;3.50;2.40;;;;;;;32.59;29.95;98898.13;78223;1297;3026667;-68
2023/07/30 13:59:13;;;;;;;3.20;2.20;;;;;;;32.46;30.31;98894.48;79489;1301;3013040;-64
2023/07/30 14:01:39;;;;;;;4.10;2.20;;;;;;;32.31;30.09;98893.61;79365;1301;3011571;-68
2023/07/30 14:04:07;;;;;;;8.80;2.20;;;;;;;32.27;30.03;98893.77;78265;1296;3017266;-64
2023/07/30 14:06:34;;;;;;;4.60;2.20;;;;;;;31.83;30.69;98893.82;79385;1301;3018650;-67
2023/07/30 14:09:00;;;;;;;8.50;2.30;;;;;;;31.42;31.46;98895.21;79417;1298;3011574;-67
2023/07/30 14:11:28;;;;;;;4.70;2.30;;;;;;;31.17;32.15;98890.63;78232;1301;3026958;-66
2023/07/30 14:13:55;;;;;;;4.30;2.30;;;;;;;31.34;31.95;98891.20;79436;1298;3018485;-73
2023/07/30 14:16:22;;;;;;;4.20;2.70;;;;;;;31.71;31.07;98889.16;79484;1297;3011456;-69
2023/07/30 14:18:50;;;;;;;3.70;2.50;;;;;;;32.01;30.38;98891.73;78189;1295;3025763;-64
2023/07/30 14:21:16;;;;;;;5.20;2.40;;;;;;;31.95;30.68;98892.17;79367;1301;3013467;-72
2023/07/30 14:23:43;;;;;;;4.30;2.30;;;;;;;32.13;30.49;98883.15;79557;1301;3011366;-69
2023/07/30 14:26:11;;;;;;;2.90;2.60;;;;;;;32.07;31.07;98881.20;78161;1297;3026654;-70
2023/07/30 14:28:37;;;;;;;2.90;2.10;;;;;;;32.22;30.82;98878.52;79611;1301;3019290;-70
2023/07/30 14:31:04;;;;;;;3.00;1.90;;;;;;;32.23;30.10;98881.04;79430;1298;3012901;-70
2023/07/30 14:33:31;;;;;;;3.50;2.50;;;;;;;32.39;30.20;98881.05;78197;1301;3026842;-68
2023/07/30 14:35:58;;;;;;;5.90;2.00;;;;;;;32.65;30.03;98880.21;79407;1301;3020600;-67
2023/07/30 14:38:24;;;;;;;5.70;2.30;;;;;;;32.87;29.91;98878.42;79532;1301;3011574;-70
2023/07/30 14:40:52;;;;;;;6.20;3.30;;;;;;;33.08;29.25;98883.73;78266;1295;3026690;-70
2023/07/30 14:43:19;;;;;;;4.60;2.80;;;;;;;33.07;29.01;98878.06;79603;1295;3018920;-69
2023/07/30 14:45:45;;;;;;;8.40;3.40;;;;;;;33.09;28.87;98877.09;79478;1301;3011839;-66
2023/07/30 14:48:13;;;;;;;7.80;3.00;;;;;;;32.90;29.18;98879.55;78168;1299;3028387;-71
2023/07/30 14:50:40;;;;;;;5.60;3.10;;;;;;;33.02;29.14;98874.25;79557;1301;3013213;-70
2023/07/30 14:53:06;;;;;;;7.80;3.50;;;;;;;33.16;28.94;98872.70;79438;1301;3011828;-67
2023/07/30 14:55:34;;;;;;;6.40;3.30;;;;;;;33.47;28.49;98872.33;78202;1300;3027887;-67
2023/07/30 14:58:00;;;;;;;5.30;3.30;;;;;;;33.48;28.31;98872.23;79593;1296;3013683;-67
2023/07/30 15:00:27;;;;;;;4.50;3.10;;;;;;;33.40;28.21;98876.84;79401;1296;3011692;-72
2023/07/30 15:02:54;;;;;;;4.20;3.10;;;;;;;33.10;28.29;98872.92;78397;1295;3026630;-71
2023/07/30 15:05:21;;;;;;;11.70;3.00;;;;;;;32.99;28.34;98868.29;79470;1298;3013383;-69
2023/07/30 15:07:48;;;;;;;7.70;3.30;;;;;;;32.86;28.52;98863.78;79427;1299;3013103;-66
2023/07/30 15:10:17;;;;;;;4.00;2.30;;;;;;;32.64;28.37;98862.91;78169;1301;3029538;-68
2023/07/30 15:12:43;;;;;;;4.90;2.70;;;;;;;32.42;28.09;98862.17;79506;1300;3013025;-70
2023/07/30 15:15:10;;;;;;;3.20;2.30;;;;;;;32.05;28.62;98867.73;79424;1298;3011682;-69
2023/07/30 15:17:38;;;;;;;3.90;2.60;;;;;;;31.82;29.49;98867.63;78210;1298;3052466;-68
2023/07/30 15:20:05;;;;;;;5.10;2.40;;;;;;;31.68;29.37;98871.90;79475;1301;3018683;-68
2023/07/30 15:22:32;;;;;;;4.10;2.20;;;;;;;31.29;29.94;98872.98;79459;1301;3011847;-68
2023/07/30 15:25:00;;;;;;;4.20;2.20;;;;;;;31.19;30.53;98869.29;78267;1298;3070772;-69
2023/07/30 15:27:26;;;;;;;2.60;2.10;;;;;;;31.27;30.43;98873.50;79457;1301;3012861;-68
2023/07/30 15:29:53;;;;;;;7.30;2.70;;;;;;;31.34;30.41;98871.41;79378;1301;3013411;-71
2023/07/30 15:32:22;;;;;;;4.60;2.10;;;;;;;31.53;30.09;98870.77;78422;1300;3026076;-67
2023/07/30 15:34:48;;;;;;;4.00;2.20;;;;;;;31.63;30.15;98871.55;79569;1301;3012893;-68
2023/07/30 15:37:15;;;;;;;3.20;2.20;;;;;;;31.65;30.07;98870.67;79493;1301;3011510;-70
2023/07/30 15:39:43;;;;;;;4.40;2.30;;;;;;;31.54;30.16;98875.41;78378;1301;3069618;-73
2023/07/30 15:42:09;;;;;;;5.40;2.70;;;;;;;31.64;30.83;98872.40;79643;1295;3013719;-67
2023/07/30 15:44:36;;;;;;;3.90;2.40;;;;;;;31.83;30.16;98871.52;79529;1301;3011565;-69
2023/07/30 15:47:04;;;;;;;5.40;2.50;;;;;;;31.82;30.02;98874.41;78321;1305;3026096;-69
2023/07/30 15:49:30;;;;;;;6.80;2.40;;;;;;;31.64;30.02;98872.86;79468;1301;3020697;-67
2023/07/30 15:51:57;;;;;;;2.90;2.40;;;;;;;31.30;30.38;98877.85;79593;1300;3013038;-70
2023/07/30 15:54:51;;;;;;;11.00;2.70;;;;;;;31.04;30.91;98869.22;78267;1298;3027430;-69
2023/07/30 15:57:18;;;;;;;3.30;2.20;;;;;;;30.76;31.46;98867.79;78277;1295;3051151;-70
2023/07/30 15:59:46;;;;;;;9.00;3.50;;;;;;;30.53;32.11;98862.82;79504;1298;3013561;-69
2023/07/30 16:02:12;;;;;;;4.20;2.70;;;;;;;30.37;33.22;98862.31;79529;1296;3011784;-67
2023/07/30 16:04:40;;;;;;;4.90;3.00;;;;;;;30.51;33.00;98854.73;78283;1300;3050467;-67
2023/07/30 16:07:09;;;;;;;8.80;2.70;;;;;;;30.81;32.89;98855.04;79503;1301;3019056;-67
2023/07/30 16:09:35;;;;;;;5.10;2.90;;;;;;;30.92;32.98;98853.73;79642;1301;3011957;-69
2023/07/30 16:12:04;;;;;;;5.90;2.70;;;;;;;30.84;33.74;98849.98;78199;1301;3053461;-73
2023/07/30 16:14:31;;;;;;;3.80;2.80;;;;;;;30.74;33.42;98846.60;79579;1296;3013292;-73
2023/07/30 16:16:57;;;;;;;3.20;2.90;;;;;;;30.64;33.03;98847.30;79522;1297;3011845;-71
2023/07/30 16:19:25;;;;;;;6.40;3.20;;;;;;;30.41;34.15;98851.58;78243;1295;3049414;-67
2023/07/30 16:21:52;;;;;;;7.30;3.00;;;;;;;30.22;34.34;98852.95;79420;1299;3013975;-72
2023/07/30 16:24:18;;;;;;;6.40;3.30;;;;;;;30.13;34.84;98852.87;79431;1309;3011797;-69
2023/07/30 16:26:46;;;;;;;5.20;3.20;;;;;;;30.09;35.03;98861.45;78201;1301;3026352;-67
2023/07/30 16:29:13;;;;;;;4.80;3.50;;;;;;;30.02;34.49;98861.53;79394;1298;3013597;-71
2023/07/30 16:31:39;;;;;;;6.20;3.50;;;;;;;29.97;34.56;98861.74;79394;1301;3011664;-67
2023/07/30 16:34:07;;;;;;;11.10;3.90;;;;;;;29.73;35.14;98862.67;78199;1302;3028641;-71
2023/07/30 16:36:34;;;;;;;10.00;3.50;;;;;;;29.55;36.19;98862.51;79547;1300;3018497;-68
2023/07/30 16:39:00;;;;;;;8.70;3.50;;;;;;;29.42;36.47;98867.29;79562;1300;3011716;-66
2023/07/30 16:41:28;;;;;;;7.90;3.50;;;;;;;29.30;37.35;98875.27;78219;1300;3028670;-67
2023/07/30 16:43:54;;;;;;;9.70;3.80;;;;;;;29.17;37.93;98881.67;79410;1298;3013205;-72
2023/07/30 16:46:21;;;;;;;14.00;5.00;;;;;;;29.03;38.03;98883.56;79520;1300;3013038;-71
2023/07/30 16:48:49;;;;;;;12.80;4.40;;;;;;;28.89;38.48;98887.05;78252;1295;3027260;-65